createdAt,value
2022-10-28T00:00:23.456Z,4.70
2022-10-28T00:03:08.819Z,5.35
2022-10-28T00:05:54.481Z,5.13
2022-10-28T00:08:40.755Z,4.65
2022-10-28T00:11:32.144Z,4.53
2022-10-28T00:14:17.440Z,4.65
2022-10-28T00:17:02.808Z,4.35
2022-10-28T00:19:48.320Z,4.93
2022-10-28T00:22:33.701Z,4.47
2022-10-28T00:25:24.824Z,4.80
2022-10-28T00:28:10.560Z,4.30
2022-10-28T00:30:55.925Z,4.38
2022-10-28T00:33:41.896Z,4.82
2022-10-28T00:36:29.492Z,4.90
2022-10-28T00:39:20.606Z,5.28
2022-10-28T00:42:07.255Z,4.78
2022-10-28T00:45:00.136Z,4.53
2022-10-28T00:48:02.100Z,4.60
2022-10-28T00:50:51.899Z,4.25
2022-10-28T00:53:39.500Z,4.68
2022-10-28T00:56:29.385Z,4.50
2022-10-28T00:59:43.808Z,4.40
2022-10-28T01:02:29.453Z,4.28
2022-10-28T01:05:20.836Z,4.45
2022-10-28T01:08:06.591Z,4.30
2022-10-28T01:11:03.558Z,4.22
2022-10-28T01:14:19.309Z,4.13
2022-10-28T01:17:33.451Z,4.53
2022-10-28T01:20:48.300Z,4.50
2022-10-28T01:23:52.300Z,4.40
2022-10-28T01:27:09.146Z,4.57
2022-10-28T01:30:16.875Z,4.55
2022-10-28T01:33:11.285Z,5.05
2022-10-28T01:36:09.067Z,5.20
2022-10-28T01:39:02.100Z,4.47
2022-10-28T01:42:02.702Z,5.05
2022-10-28T01:45:20.514Z,4.60
2022-10-28T01:48:12.556Z,4.68
2022-10-28T01:51:11.866Z,4.88
2022-10-28T01:54:00.007Z,5.22
2022-10-28T01:56:48.301Z,5.88
2022-10-28T01:59:36.511Z,5.45
2022-10-28T02:02:22.220Z,5.25
2022-10-28T02:05:46.839Z,5.57
2022-10-28T02:09:13.884Z,5.05
2022-10-28T02:12:34.446Z,5.20
2022-10-28T02:15:48.189Z,4.97
2022-10-28T02:18:41.522Z,5.25
2022-10-28T02:21:56.113Z,5.18
2022-10-28T02:25:08.994Z,5.10
2022-10-28T02:28:07.732Z,5.70
2022-10-28T02:31:00.277Z,5.38
2022-10-28T02:33:51.983Z,5.60
2022-10-28T02:36:41.416Z,4.57
2022-10-28T02:39:33.864Z,5.10
2022-10-28T02:42:27.286Z,5.90
2022-10-28T02:45:18.726Z,5.00
2022-10-28T02:48:09.893Z,4.78
2022-10-28T02:51:06.323Z,5.30
2022-10-28T02:54:13.465Z,5.00
2022-10-28T02:57:07.431Z,4.60
2022-10-28T03:00:08.303Z,5.10
2022-10-28T03:02:53.716Z,5.28
2022-10-28T03:05:39.529Z,4.75
2022-10-28T03:08:25.341Z,4.57
2022-10-28T03:11:11.054Z,4.95
2022-10-28T03:13:56.224Z,5.22
2022-10-28T03:16:42.123Z,4.35
2022-10-28T03:19:27.289Z,4.72
2022-10-28T03:22:12.916Z,4.35
2022-10-28T03:24:58.463Z,4.60
2022-10-28T03:27:44.187Z,5.07
2022-10-28T03:30:29.492Z,4.95
2022-10-28T03:33:15.432Z,4.80
2022-10-28T03:36:01.191Z,5.03
2022-10-28T03:38:46.534Z,4.32
2022-10-28T03:41:31.786Z,4.57
2022-10-28T03:44:17.273Z,4.65
2022-10-28T03:47:02.541Z,4.75
2022-10-28T03:49:48.107Z,4.78
2022-10-28T03:52:33.487Z,4.78
2022-10-28T03:55:19.413Z,4.47
2022-10-28T03:58:04.492Z,4.97
2022-10-28T04:00:52.415Z,4.85
2022-10-28T04:03:37.879Z,5.05
2022-10-28T04:06:23.724Z,4.82
2022-10-28T04:09:09.100Z,5.25
2022-10-28T04:11:54.660Z,4.97
2022-10-28T04:14:40.280Z,5.00
2022-10-28T04:17:25.986Z,5.03
2022-10-28T04:20:11.627Z,4.90
2022-10-28T04:22:57.516Z,4.60
2022-10-28T04:25:43.909Z,4.85
2022-10-28T04:28:29.507Z,4.88
2022-10-28T04:31:14.803Z,5.28
2022-10-28T04:34:00.784Z,4.47
2022-10-28T04:36:46.148Z,4.78
2022-10-28T04:39:31.915Z,4.25
2022-10-28T04:42:17.465Z,4.60
2022-10-28T04:45:02.970Z,4.45
2022-10-28T04:47:48.526Z,4.03
2022-10-28T04:50:34.843Z,4.40
2022-10-28T04:53:28.849Z,4.35
2022-10-28T04:56:14.453Z,4.13
2022-10-28T04:59:00.188Z,4.20
2022-10-28T05:01:45.757Z,4.18
2022-10-28T05:04:31.390Z,4.10
2022-10-28T05:07:18.710Z,3.92
2022-10-28T05:10:07.437Z,4.07
2022-10-28T05:12:52.749Z,4.10
2022-10-28T05:15:38.226Z,3.80
2022-10-28T05:18:23.974Z,3.83
2022-10-28T05:21:09.186Z,4.00
2022-10-28T05:23:54.640Z,4.05
2022-10-28T05:26:40.133Z,4.03
2022-10-28T05:29:29.682Z,4.30
2022-10-28T05:32:17.581Z,3.90
2022-10-28T05:35:02.926Z,4.38
2022-10-28T05:37:48.712Z,3.83
2022-10-28T05:40:33.995Z,4.00
2022-10-28T05:43:19.433Z,4.10
2022-10-28T05:46:05.081Z,4.30
2022-10-28T05:48:50.376Z,4.28
2022-10-28T05:51:35.936Z,4.60
2022-10-28T05:54:21.443Z,4.15
2022-10-28T05:57:07.168Z,4.18
2022-10-28T05:59:52.679Z,4.40
2022-10-28T06:02:38.293Z,3.70
2022-10-28T06:05:23.776Z,4.43
2022-10-28T06:08:10.247Z,4.10
2022-10-28T06:10:54.119Z,4.38
2022-10-28T06:13:39.533Z,4.32
2022-10-28T06:16:25.077Z,3.92
2022-10-28T06:19:10.577Z,4.38
2022-10-28T06:21:55.986Z,4.53
2022-10-28T06:24:41.754Z,3.63
2022-10-28T06:27:27.233Z,3.70
2022-10-28T06:30:13.152Z,3.92
2022-10-28T06:32:58.522Z,4.05
2022-10-28T06:35:43.901Z,3.85
2022-10-28T06:38:29.448Z,3.60
2022-10-28T06:41:14.893Z,3.55
2022-10-28T06:44:00.506Z,3.53
2022-10-28T06:46:47.432Z,3.83
2022-10-28T06:49:32.754Z,3.63
2022-10-28T06:52:18.193Z,3.83
2022-10-28T06:55:03.791Z,4.35
2022-10-28T06:57:49.287Z,4.10
2022-10-28T07:00:34.726Z,4.03
2022-10-28T07:03:20.642Z,4.45
2022-10-28T07:06:06.496Z,3.97
2022-10-28T07:08:52.424Z,3.85
2022-10-28T07:11:38.102Z,4.35
2022-10-28T07:14:23.487Z,4.30
2022-10-28T07:17:08.718Z,3.72
2022-10-28T07:19:54.244Z,3.78
2022-10-28T07:22:39.626Z,3.63
2022-10-28T07:25:25.825Z,3.83
2022-10-28T07:28:10.816Z,3.35
2022-10-28T07:31:01.056Z,3.80
2022-10-28T07:33:52.102Z,3.33
2022-10-28T07:36:37.606Z,3.17
2022-10-28T07:39:23.372Z,3.50
2022-10-28T07:42:08.610Z,3.70
2022-10-28T07:44:54.047Z,3.50
2022-10-28T07:47:40.171Z,3.60
2022-10-28T07:50:25.559Z,3.40
2022-10-28T07:53:11.105Z,3.63
2022-10-28T07:56:10.326Z,3.30
2022-10-28T07:58:56.152Z,3.50
2022-10-28T08:01:41.729Z,3.47
2022-10-28T08:04:29.987Z,3.47
2022-10-28T08:07:15.888Z,3.13
2022-10-28T08:10:01.212Z,3.28
2022-10-28T08:12:46.553Z,3.10
2022-10-28T08:15:32.009Z,3.25
2022-10-28T08:18:17.146Z,3.10
2022-10-28T08:21:03.584Z,3.00
2022-10-28T08:23:49.003Z,2.90
2022-10-28T08:26:34.527Z,3.10
2022-10-28T08:29:19.788Z,2.88
2022-10-28T08:32:08.836Z,2.78
2022-10-28T08:34:54.251Z,2.85
2022-10-28T08:37:39.587Z,3.08
2022-10-28T08:40:37.279Z,2.80
2022-10-28T08:43:40.381Z,2.88
2022-10-28T08:46:59.522Z,2.85
2022-10-28T08:52:56.286Z,2.95
2022-10-28T08:55:46.860Z,2.75
2022-10-28T08:58:35.864Z,3.17
2022-10-28T09:01:41.468Z,3.15
2022-10-28T09:04:38.451Z,3.03
2022-10-28T09:07:24.860Z,3.00
2022-10-28T09:10:13.581Z,2.97
2022-10-28T09:13:23.561Z,3.80
2022-10-28T09:16:41.028Z,3.33
2022-10-28T09:19:47.562Z,3.20
2022-10-28T09:22:38.993Z,2.83
2022-10-28T09:25:29.118Z,2.87
2022-10-28T09:28:50.461Z,2.95
2022-10-28T09:31:47.498Z,3.22
2022-10-28T09:34:39.567Z,2.88
2022-10-28T09:37:31.358Z,2.88
2022-10-28T09:40:23.389Z,3.10
2022-10-28T09:46:15.709Z,3.17
2022-10-28T09:49:06.503Z,3.30
2022-10-28T09:52:27.068Z,2.83
2022-10-28T09:55:32.722Z,3.72
2022-10-28T09:58:18.987Z,3.40
2022-10-28T10:01:05.061Z,3.17
2022-10-28T10:03:52.154Z,3.20
2022-10-28T10:06:39.551Z,3.38
2022-10-28T10:09:28.168Z,3.20
2022-10-28T10:12:14.047Z,3.45
2022-10-28T10:14:59.870Z,3.75
2022-10-28T10:17:47.528Z,3.22
2022-10-28T10:20:55.668Z,3.53
2022-10-28T10:23:41.056Z,3.05
2022-10-28T10:26:32.584Z,3.13
2022-10-28T10:29:18.899Z,3.22
2022-10-28T10:32:27.109Z,3.40
2022-10-28T10:35:20.322Z,3.75
2022-10-28T10:38:07.561Z,3.97
2022-10-28T10:40:53.303Z,3.47
2022-10-28T10:43:39.813Z,3.50
2022-10-28T10:46:25.953Z,3.25
2022-10-28T10:49:15.498Z,3.47
2022-10-28T10:52:07.742Z,3.95
2022-10-28T10:55:03.667Z,3.72
2022-10-28T10:57:49.360Z,3.55
2022-10-28T11:00:44.482Z,3.33
2022-10-28T11:03:31.738Z,3.47
2022-10-28T11:06:25.887Z,3.33
2022-10-28T11:09:36.994Z,3.47
2022-10-28T11:12:32.769Z,3.60
2022-10-28T11:15:22.742Z,3.50
2022-10-28T11:18:11.079Z,3.50
2022-10-28T11:21:05.441Z,3.42
2022-10-28T11:24:12.456Z,3.45
2022-10-28T11:26:57.884Z,3.30
2022-10-28T11:29:45.366Z,3.20
2022-10-28T11:33:16.478Z,3.50
2022-10-28T11:36:32.856Z,3.83
2022-10-28T11:39:30.594Z,3.20
2022-10-28T11:42:46.358Z,3.67
2022-10-28T11:45:38.545Z,3.00
2022-10-28T11:51:51.095Z,3.17
2022-10-28T11:54:54.904Z,2.72
2022-10-28T11:57:54.296Z,3.03
2022-10-28T12:01:04.396Z,2.95
2022-10-28T12:04:05.800Z,3.33
2022-10-28T12:07:15.655Z,3.17
2022-10-28T12:10:10.954Z,3.13
2022-10-28T12:13:17.407Z,3.35
2022-10-28T12:16:26.323Z,2.80
2022-10-28T12:19:20.676Z,3.17
2022-10-28T12:22:14.123Z,3.10
2022-10-28T12:25:13.118Z,3.53
2022-10-28T12:28:07.546Z,3.53
2022-10-28T12:30:54.639Z,3.95
2022-10-28T12:33:46.091Z,3.40
2022-10-28T12:36:38.781Z,3.72
2022-10-28T12:39:47.743Z,3.35
2022-10-28T12:42:39.276Z,3.80
2022-10-28T12:45:25.406Z,3.85
2022-10-28T12:48:27.935Z,3.22
2022-10-28T12:51:23.815Z,2.90
2022-10-28T12:54:25.141Z,3.25
2022-10-28T12:57:13.950Z,3.50
2022-10-28T13:00:05.748Z,3.03
2022-10-28T13:06:07.019Z,3.33
2022-10-28T13:09:25.780Z,3.80
2022-10-28T13:12:24.285Z,2.97
2022-10-28T13:15:28.045Z,2.70
2022-10-28T13:18:25.464Z,2.78
2022-10-28T13:21:32.504Z,2.78
2022-10-28T13:24:25.760Z,3.17
2022-10-28T13:27:14.116Z,3.17
2022-10-28T13:30:00.445Z,3.00
2022-10-28T13:32:45.924Z,3.72
2022-10-28T13:35:32.165Z,3.42
2022-10-28T13:38:23.849Z,3.05
2022-10-28T13:41:25.370Z,2.83
2022-10-28T13:44:10.502Z,2.67
2022-10-28T13:46:58.775Z,2.70
2022-10-28T13:50:06.703Z,2.92
2022-10-28T13:53:37.000Z,2.30
2022-10-28T13:56:43.425Z,2.90
2022-10-28T13:59:34.163Z,2.40
2022-10-28T14:02:40.044Z,2.63
2022-10-28T14:05:27.162Z,3.38
2022-10-28T14:08:32.545Z,2.72
2022-10-28T14:11:28.542Z,2.92
2022-10-28T14:14:17.130Z,3.17
2022-10-28T14:17:03.485Z,2.50
2022-10-28T14:19:52.499Z,3.10
2022-10-28T14:22:37.942Z,3.05
2022-10-28T14:25:44.408Z,3.10
2022-10-28T14:28:29.690Z,2.70
2022-10-28T14:31:15.730Z,2.80
2022-10-28T14:34:00.808Z,3.20
2022-10-28T14:37:25.826Z,2.50
2022-10-28T14:40:58.414Z,2.65
2022-10-28T14:44:00.557Z,2.60
2022-10-28T14:49:48.923Z,2.70
2022-10-28T14:52:36.885Z,2.40
2022-10-28T14:55:29.680Z,2.40
2022-10-28T14:58:20.764Z,2.65
2022-10-28T15:01:18.566Z,2.17
2022-10-28T15:04:12.099Z,2.40
2022-10-28T15:06:58.300Z,2.40
2022-10-28T15:09:44.722Z,2.58
2022-10-28T15:12:33.072Z,2.40
2022-10-28T15:15:21.577Z,2.30
2022-10-28T15:18:24.998Z,2.40
2022-10-28T15:21:13.992Z,2.80
2022-10-28T15:24:04.752Z,2.58
2022-10-28T15:26:56.824Z,2.67
2022-10-28T15:32:33.229Z,3.47
2022-10-28T15:35:30.847Z,2.30
2022-10-28T15:38:34.904Z,2.75
2022-10-28T15:41:23.827Z,2.67
2022-10-28T15:44:34.270Z,2.47
2022-10-28T15:47:34.664Z,2.72
2022-10-28T15:50:25.702Z,2.55
2022-10-28T15:53:11.294Z,2.80
2022-10-28T15:56:20.088Z,2.55
2022-10-28T15:59:16.903Z,2.72
2022-10-28T16:02:02.306Z,2.63
2022-10-28T16:04:47.842Z,2.88
2022-10-28T16:07:33.147Z,3.10
2022-10-28T16:10:18.629Z,2.92
2022-10-28T16:13:09.033Z,3.35
2022-10-28T16:16:00.552Z,2.80
2022-10-28T16:18:49.747Z,2.65
2022-10-28T16:21:35.884Z,2.72
2022-10-28T16:24:21.220Z,2.83
2022-10-28T16:27:24.888Z,2.70
2022-10-28T16:30:10.964Z,2.58
2022-10-28T16:32:57.014Z,3.03
2022-10-28T16:35:42.759Z,2.40
2022-10-28T16:38:30.875Z,2.75
2022-10-28T16:41:18.583Z,2.60
2022-10-28T16:44:03.974Z,2.50
2022-10-28T16:46:49.516Z,2.22
2022-10-28T16:49:35.014Z,2.42
2022-10-28T16:52:22.755Z,2.17
2022-10-28T16:55:16.499Z,2.50
2022-10-28T16:58:01.781Z,2.47
2022-10-28T17:00:47.351Z,2.72
2022-10-28T17:03:32.791Z,2.28
2022-10-28T17:06:18.239Z,2.78
2022-10-28T17:09:04.154Z,1.92
2022-10-28T17:11:49.670Z,1.67
2022-10-28T17:14:34.915Z,2.00
2022-10-28T17:17:20.350Z,1.63
2022-10-28T17:20:06.968Z,1.63
2022-10-28T17:22:53.261Z,1.73
2022-10-28T17:28:24.681Z,2.25
2022-10-28T17:31:10.670Z,2.30
2022-10-28T17:33:56.411Z,2.13
2022-10-28T17:36:41.661Z,2.17
2022-10-28T17:39:27.180Z,2.70
2022-10-28T17:42:12.465Z,2.15
2022-10-28T17:44:57.908Z,2.20
2022-10-28T17:47:43.566Z,2.15
2022-10-28T17:50:28.972Z,1.92
2022-10-28T17:53:14.878Z,2.00
2022-10-28T17:56:03.505Z,2.17
2022-10-28T17:58:51.550Z,2.13
2022-10-28T18:01:37.355Z,2.03
2022-10-28T18:04:26.335Z,2.00
2022-10-28T18:07:11.715Z,2.60
2022-10-28T18:09:57.069Z,1.77
2022-10-28T18:12:42.449Z,2.40
2022-10-28T18:15:27.729Z,2.22
2022-10-28T18:18:14.648Z,2.00
2022-10-28T18:20:59.988Z,2.55
2022-10-28T18:23:45.466Z,2.30
2022-10-28T18:26:32.517Z,2.20
2022-10-28T18:29:18.001Z,2.20
2022-10-28T18:32:04.584Z,2.75
2022-10-28T18:34:49.727Z,2.58
2022-10-28T18:37:35.230Z,2.60
2022-10-28T18:40:20.721Z,2.53
2022-10-28T18:43:06.026Z,2.58
2022-10-28T18:45:52.165Z,1.90
2022-10-28T18:48:37.772Z,1.83
2022-10-28T18:51:23.488Z,1.60
2022-10-28T18:54:08.753Z,2.00
2022-10-28T18:56:57.596Z,2.33
2022-10-28T19:00:05.103Z,2.40
2022-10-28T19:02:49.158Z,2.88
2022-10-28T19:05:34.490Z,2.40
2022-10-28T19:08:19.982Z,2.50
2022-10-28T19:11:06.258Z,2.40
2022-10-28T19:13:51.659Z,2.38
2022-10-28T19:16:37.065Z,2.55
2022-10-28T19:19:22.496Z,2.78
2022-10-28T19:22:11.734Z,2.78
2022-10-28T19:24:56.919Z,2.10
2022-10-28T19:27:43.006Z,2.90
2022-10-28T19:30:28.460Z,2.80
2022-10-28T19:33:13.979Z,2.38
2022-10-28T19:36:09.753Z,2.05
2022-10-28T19:38:56.985Z,2.30
2022-10-28T19:41:43.368Z,2.40
2022-10-28T19:44:28.559Z,2.13
2022-10-28T19:47:14.093Z,2.30
2022-10-28T19:49:59.999Z,2.30
2022-10-28T19:52:45.322Z,2.40
2022-10-28T19:55:30.927Z,2.13
2022-10-28T19:58:16.528Z,1.70
2022-10-28T20:01:04.731Z,2.22
2022-10-28T20:03:51.218Z,2.00
2022-10-28T20:06:38.504Z,3.47
2022-10-28T20:09:28.617Z,3.90
2022-10-28T20:12:14.613Z,4.20
2022-10-28T20:15:00.145Z,3.38
2022-10-28T20:17:45.444Z,3.15
2022-10-28T20:20:31.142Z,3.00
2022-10-28T20:23:16.468Z,2.40
2022-10-28T20:26:04.043Z,2.88
2022-10-28T20:28:50.243Z,3.08
2022-10-28T20:31:35.826Z,2.50
2022-10-28T20:34:22.213Z,2.30
2022-10-28T20:37:07.283Z,2.03
2022-10-28T20:39:55.017Z,2.15
2022-10-28T20:42:43.263Z,3.17
2022-10-28T20:45:28.521Z,2.40
2022-10-28T20:48:13.900Z,2.58
2022-10-28T20:51:01.599Z,4.53
2022-10-28T20:53:46.900Z,6.15
2022-10-28T20:56:35.119Z,6.70
2022-10-28T20:59:20.303Z,5.60
2022-10-28T21:02:06.042Z,4.75
2022-10-28T21:04:52.121Z,4.70
2022-10-28T21:07:37.827Z,3.80
2022-10-28T21:10:24.351Z,3.92
2022-10-28T21:13:09.808Z,3.53
2022-10-28T21:15:57.661Z,3.25
2022-10-28T21:18:43.422Z,3.55
2022-10-28T21:21:30.170Z,4.03
2022-10-28T21:24:15.436Z,5.07
2022-10-28T21:27:01.072Z,4.07
2022-10-28T21:29:46.378Z,4.13
2022-10-28T21:32:32.144Z,4.88
2022-10-28T21:35:17.616Z,6.13
2022-10-28T21:38:03.614Z,5.72
2022-10-28T21:40:49.066Z,4.70
2022-10-28T21:43:36.528Z,3.92
2022-10-28T21:46:23.193Z,3.15
2022-10-28T21:49:08.590Z,2.75
2022-10-28T21:51:53.940Z,2.10
2022-10-28T21:54:39.422Z,2.30
2022-10-28T21:57:30.070Z,1.92
2022-10-28T22:00:15.752Z,2.25
2022-10-28T22:03:01.091Z,2.15
2022-10-28T22:05:50.663Z,1.85
2022-10-28T22:08:36.370Z,1.80
2022-10-28T22:11:23.446Z,1.70
2022-10-28T22:14:08.694Z,1.95
2022-10-28T22:16:54.191Z,2.03
2022-10-28T22:19:39.644Z,2.00
2022-10-28T22:22:26.003Z,2.33
2022-10-28T22:25:11.339Z,1.92
2022-10-28T22:27:56.955Z,2.55
2022-10-28T22:30:42.388Z,2.83
2022-10-28T22:33:27.903Z,2.83
2022-10-28T22:36:16.821Z,3.88
2022-10-28T22:39:02.486Z,3.80
2022-10-28T22:41:47.791Z,4.03
2022-10-28T22:44:33.619Z,3.95
2022-10-28T22:47:18.935Z,3.65
2022-10-28T22:50:04.782Z,3.58
2022-10-28T22:52:51.945Z,3.63
2022-10-28T22:55:37.438Z,2.70
2022-10-28T22:58:24.500Z,2.53
2022-10-28T23:01:16.301Z,1.90
2022-10-28T23:04:01.981Z,1.92
2022-10-28T23:06:47.170Z,1.90
2022-10-28T23:09:32.530Z,1.70
2022-10-28T23:12:17.870Z,1.80
2022-10-28T23:15:03.527Z,1.77
2022-10-28T23:17:50.583Z,1.90
2022-10-28T23:20:37.123Z,1.70
2022-10-28T23:23:22.894Z,1.60
2022-10-28T23:26:10.628Z,1.60
2022-10-28T23:28:58.251Z,1.70
2022-10-28T23:31:43.361Z,1.70
2022-10-28T23:34:29.086Z,1.85
2022-10-28T23:37:15.470Z,1.90
2022-10-28T23:40:01.079Z,1.80
2022-10-28T23:42:46.492Z,1.65
2022-10-28T23:45:32.158Z,1.70
2022-10-28T23:48:17.450Z,1.73
2022-10-28T23:51:03.002Z,2.40
2022-10-28T23:53:48.952Z,2.30
2022-10-28T23:56:34.295Z,1.80
2022-10-28T23:59:19.424Z,2.28
